createdAt,value
2018-09-09T00:01:37.584Z,19.63
2018-09-09T00:04:06.576Z,19.57
2018-09-09T00:06:35.616Z,19.51
2018-09-09T00:09:04.904Z,19.47
2018-09-09T00:11:33.889Z,19.44
2018-09-09T00:14:03.085Z,19.39
2018-09-09T00:16:32.082Z,19.36
2018-09-09T00:19:01.311Z,19.38
2018-09-09T00:21:30.365Z,19.36
2018-09-09T00:23:59.328Z,19.29
2018-09-09T00:26:28.282Z,19.26
2018-09-09T00:28:57.277Z,19.20
2018-09-09T00:31:26.220Z,19.23
2018-09-09T00:33:55.220Z,19.16
2018-09-09T00:36:24.232Z,19.20
2018-09-09T00:38:53.216Z,19.19
2018-09-09T00:41:22.229Z,19.17
2018-09-09T00:43:51.191Z,19.19
2018-09-09T00:46:20.200Z,19.18
2018-09-09T00:48:53.005Z,19.13
2018-09-09T00:51:26.953Z,19.11
2018-09-09T00:53:55.895Z,19.02
2018-09-09T00:56:24.830Z,18.95
2018-09-09T00:58:53.920Z,18.89
2018-09-09T01:01:22.936Z,18.79
2018-09-09T01:03:51.873Z,18.75
2018-09-09T01:06:20.832Z,18.71
2018-09-09T01:08:49.816Z,18.63
2018-09-09T01:11:18.840Z,18.55
2018-09-09T01:13:47.772Z,18.52
2018-09-09T01:16:16.755Z,18.50
2018-09-09T01:18:45.756Z,18.41
2018-09-09T01:21:14.728Z,18.35
2018-09-09T01:23:43.702Z,18.36
2018-09-09T01:26:12.685Z,18.31
2018-09-09T01:28:41.685Z,18.27
2018-09-09T01:31:10.676Z,18.22
2018-09-09T01:33:39.692Z,18.18
2018-09-09T01:36:08.696Z,18.14
2018-09-09T01:38:37.633Z,18.13
2018-09-09T01:41:06.695Z,18.14
2018-09-09T01:43:35.721Z,18.14
2018-09-09T01:46:04.680Z,18.11
2018-09-09T01:48:33.664Z,18.13
2018-09-09T01:51:02.685Z,18.08
2018-09-09T01:53:31.620Z,18.09
2018-09-09T01:56:00.544Z,18.08
2018-09-09T01:58:29.508Z,18.05
2018-09-09T02:00:58.496Z,18.01
2018-09-09T02:03:27.504Z,17.88
2018-09-09T02:05:56.452Z,17.80
2018-09-09T02:08:25.576Z,17.75
2018-09-09T02:10:58.804Z,17.71
2018-09-09T02:13:28.315Z,17.70
2018-09-09T02:15:57.259Z,17.69
2018-09-09T02:18:26.237Z,17.70
2018-09-09T02:20:55.252Z,17.62
2018-09-09T02:23:24.941Z,17.67
2018-09-09T02:25:53.971Z,17.67
2018-09-09T02:28:22.952Z,17.68
2018-09-09T02:30:52.012Z,17.59
2018-09-09T02:33:21.065Z,17.56
2018-09-09T02:35:50.135Z,17.55
2018-09-09T02:38:19.145Z,17.53
2018-09-09T02:40:48.091Z,17.54
2018-09-09T02:43:17.161Z,17.57
2018-09-09T02:45:46.117Z,17.57
2018-09-09T02:48:15.253Z,17.56
2018-09-09T02:50:44.204Z,17.54
2018-09-09T02:53:13.208Z,17.49
2018-09-09T02:55:45.580Z,17.43
2018-09-09T02:58:16.535Z,17.37
2018-09-09T03:00:46.007Z,17.32
2018-09-09T03:03:15.001Z,17.28
2018-09-09T03:05:44.036Z,17.24
2018-09-09T03:08:13.025Z,17.26
2018-09-09T03:10:41.972Z,17.25
2018-09-09T03:13:10.927Z,17.22
2018-09-09T03:15:39.855Z,17.17
2018-09-09T03:18:08.806Z,17.20
2018-09-09T03:20:37.820Z,17.17
2018-09-09T03:23:06.828Z,17.14
2018-09-09T03:25:35.840Z,17.11
2018-09-09T03:28:04.792Z,17.11
2018-09-09T03:30:33.732Z,17.09
2018-09-09T03:33:02.744Z,17.06
2018-09-09T03:35:31.723Z,17.05
2018-09-09T03:38:00.768Z,17.04
2018-09-09T03:40:29.787Z,16.84
2018-09-09T03:42:58.944Z,17.00
2018-09-09T03:45:27.888Z,16.98
2018-09-09T03:47:57.045Z,16.93
2018-09-09T03:50:26.046Z,16.93
2018-09-09T03:52:55.117Z,16.93
2018-09-09T03:55:24.136Z,16.95
2018-09-09T03:57:53.233Z,16.93
2018-09-09T04:00:22.187Z,16.92
2018-09-09T04:02:51.177Z,16.95
2018-09-09T04:05:20.180Z,16.93
2018-09-09T04:07:49.123Z,16.98
2018-09-09T04:10:18.276Z,17.02
2018-09-09T04:12:47.211Z,17.09
2018-09-09T04:15:16.347Z,17.15
2018-09-09T04:17:45.364Z,17.24
2018-09-09T04:20:14.308Z,17.33
2018-09-09T04:22:43.384Z,17.45
2018-09-09T04:25:12.390Z,17.56
2018-09-09T04:27:41.481Z,17.67
2018-09-09T04:30:10.504Z,17.77
2018-09-09T04:32:39.626Z,17.93
2018-09-09T04:35:08.700Z,18.08
2018-09-09T04:37:37.639Z,18.31
2018-09-09T04:40:06.732Z,18.86
2018-09-09T04:42:35.757Z,20.05
2018-09-09T04:45:04.740Z,20.95
2018-09-09T04:47:33.696Z,21.54
2018-09-09T04:50:02.723Z,22.11
2018-09-09T04:52:31.773Z,22.53
2018-09-09T04:55:00.774Z,22.94
2018-09-09T04:57:29.744Z,23.25
2018-09-09T04:59:58.690Z,23.55
2018-09-09T05:02:27.864Z,23.99
2018-09-09T05:04:56.875Z,24.40
2018-09-09T05:07:25.970Z,24.71
2018-09-09T05:09:55.045Z,24.66
2018-09-09T05:12:24.075Z,24.47
2018-09-09T05:14:53.117Z,24.33
2018-09-09T05:17:22.091Z,24.30
2018-09-09T05:19:51.112Z,24.30
2018-09-09T05:22:20.132Z,24.80
2018-09-09T05:24:49.224Z,25.07
2018-09-09T05:27:18.183Z,24.85
2018-09-09T05:29:47.256Z,25.17
2018-09-09T05:32:16.289Z,25.30
2018-09-09T05:34:45.224Z,25.29
2018-09-09T05:37:14.220Z,25.92
2018-09-09T05:39:43.263Z,26.16
2018-09-09T05:42:12.460Z,25.65
2018-09-09T05:44:41.555Z,24.90
2018-09-09T05:47:10.601Z,24.50
2018-09-09T05:49:39.685Z,24.13
2018-09-09T05:52:08.709Z,23.99
2018-09-09T05:54:37.835Z,23.86
2018-09-09T05:57:06.919Z,24.13
2018-09-09T05:59:35.947Z,24.16
2018-09-09T06:02:04.920Z,23.88
2018-09-09T06:04:33.873Z,23.71
2018-09-09T06:07:02.892Z,23.70
2018-09-09T06:09:31.908Z,23.94
2018-09-09T06:12:00.976Z,24.06
2018-09-09T06:14:29.971Z,23.83
2018-09-09T06:16:58.973Z,23.82
2018-09-09T06:19:27.955Z,23.87
2018-09-09T06:21:56.908Z,23.61
2018-09-09T06:24:25.909Z,23.54
2018-09-09T06:26:54.936Z,23.55
2018-09-09T06:29:23.920Z,23.65
2018-09-09T06:31:53.004Z,23.86
2018-09-09T06:34:22.052Z,24.04
2018-09-09T06:36:51.089Z,24.10
2018-09-09T06:39:20.112Z,24.13
2018-09-09T06:41:49.151Z,24.33
2018-09-09T06:44:18.168Z,24.80
2018-09-09T06:46:47.179Z,24.67
2018-09-09T06:49:16.277Z,24.57
2018-09-09T06:51:45.251Z,24.66
2018-09-09T06:54:14.228Z,24.81
2018-09-09T06:56:43.236Z,25.01
2018-09-09T06:59:12.281Z,25.11
2018-09-09T07:01:41.287Z,25.14
2018-09-09T07:04:10.216Z,24.96
2018-09-09T07:06:39.232Z,25.17
2018-09-09T07:09:09.516Z,25.14
2018-09-09T07:11:38.790Z,25.12
2018-09-09T07:14:07.655Z,25.04
2018-09-09T07:16:36.738Z,25.12
2018-09-09T07:19:05.819Z,25.14
2018-09-09T07:21:34.759Z,25.36
2018-09-09T07:24:04.035Z,25.72
2018-09-09T07:26:33.118Z,25.79
2018-09-09T07:29:02.201Z,25.83
2018-09-09T07:31:31.196Z,25.92
2018-09-09T07:34:00.405Z,26.06
2018-09-09T07:36:29.368Z,26.06
2018-09-09T07:38:58.356Z,26.13
2018-09-09T07:41:27.446Z,26.02
2018-09-09T07:43:56.469Z,26.03
2018-09-09T07:46:25.584Z,25.85
2018-09-09T07:48:54.641Z,25.98
2018-09-09T07:51:23.787Z,26.20
2018-09-09T07:53:52.838Z,26.26
2018-09-09T07:56:21.917Z,26.29
2018-09-09T07:58:51.013Z,26.19
2018-09-09T08:01:19.976Z,26.30
2018-09-09T08:03:49.242Z,26.25
2018-09-09T08:06:18.253Z,26.58
2018-09-09T08:08:47.289Z,26.62
2018-09-09T08:11:16.313Z,26.74
2018-09-09T08:13:45.317Z,26.70
2018-09-09T08:16:14.321Z,26.57
2018-09-09T08:18:43.342Z,26.80
2018-09-09T08:21:12.364Z,27.06
2018-09-09T08:23:41.338Z,27.36
2018-09-09T08:26:11.376Z,27.45
2018-09-09T08:28:40.328Z,27.53
2018-09-09T08:31:09.313Z,27.47
2018-09-09T08:33:38.320Z,27.67
2018-09-09T08:36:07.332Z,27.77
2018-09-09T08:38:36.357Z,27.70
2018-09-09T08:41:05.744Z,27.61
2018-09-09T08:43:34.880Z,27.81
2018-09-09T08:46:03.816Z,27.95
2018-09-09T08:48:33.132Z,28.07
2018-09-09T08:51:02.164Z,28.10
2018-09-09T08:53:31.237Z,28.06
2018-09-09T08:56:00.212Z,28.10
2018-09-09T08:58:29.360Z,28.12
2018-09-09T09:00:58.421Z,28.11
2018-09-09T09:03:27.494Z,28.10
2018-09-09T09:05:56.961Z,28.23
2018-09-09T09:08:25.992Z,28.41
2018-09-09T09:10:55.036Z,28.45
2018-09-09T09:13:24.053Z,28.58
2018-09-09T09:15:52.989Z,28.84
2018-09-09T09:18:21.991Z,28.68
2018-09-09T09:20:51.009Z,28.79
2018-09-09T09:23:20.063Z,28.77
2018-09-09T09:25:53.768Z,29.09
2018-09-09T09:28:23.783Z,29.08
2018-09-09T09:30:53.556Z,29.22
2018-09-09T09:33:22.839Z,29.12
2018-09-09T09:35:53.145Z,29.18
2018-09-09T09:38:23.631Z,29.14
2018-09-09T09:40:53.115Z,29.21
2018-09-09T09:43:22.115Z,29.19
2018-09-09T09:45:51.253Z,29.39
2018-09-09T09:48:20.245Z,29.37
2018-09-09T09:50:49.193Z,29.44
2018-09-09T09:53:18.303Z,29.48
2018-09-09T09:55:47.325Z,29.53
2018-09-09T09:58:16.266Z,29.73
2018-09-09T10:00:50.399Z,29.92
2018-09-09T10:03:19.360Z,30.21
2018-09-09T10:05:48.450Z,30.21
2018-09-09T10:08:17.388Z,30.50
2018-09-09T10:10:46.356Z,30.46
2018-09-09T10:13:15.360Z,30.65
2018-09-09T10:15:44.404Z,30.64
2018-09-09T10:18:13.388Z,30.96
2018-09-09T10:20:42.447Z,31.21
2018-09-09T10:23:11.525Z,31.27
2018-09-09T10:25:40.547Z,31.42
2018-09-09T10:28:09.522Z,31.27
2018-09-09T10:30:38.472Z,31.30
2018-09-09T10:33:07.544Z,31.51
2018-09-09T10:35:36.545Z,31.41
2018-09-09T10:38:05.539Z,31.60
2018-09-09T10:40:34.508Z,31.72
2018-09-09T10:43:03.517Z,31.91
2018-09-09T10:45:32.560Z,31.82
2018-09-09T10:48:01.508Z,32.01
2018-09-09T10:50:30.574Z,32.20
2018-09-09T10:52:59.601Z,32.55
2018-09-09T10:55:28.639Z,33.53
2018-09-09T10:57:57.601Z,33.52
2018-09-09T11:00:26.529Z,33.62
2018-09-09T11:02:55.615Z,32.88
2018-09-09T11:05:24.621Z,33.41
2018-09-09T11:07:53.696Z,34.24
2018-09-09T11:10:22.637Z,34.81
2018-09-09T11:12:51.645Z,34.60
2018-09-09T11:15:20.707Z,34.69
2018-09-09T11:17:49.652Z,34.50
2018-09-09T11:20:18.731Z,33.65
2018-09-09T11:22:47.737Z,32.85
2018-09-09T11:25:16.769Z,31.86
2018-09-09T11:27:45.839Z,31.47
2018-09-09T11:30:14.826Z,32.52
2018-09-09T11:32:43.867Z,32.80
2018-09-09T11:35:12.962Z,32.87
2018-09-09T11:37:41.975Z,33.16
2018-09-09T11:40:10.992Z,33.07
2018-09-09T11:42:40.020Z,32.35
2018-09-09T11:45:09.196Z,31.75
2018-09-09T11:47:38.155Z,32.73
2018-09-09T11:50:07.257Z,34.28
2018-09-09T11:52:36.250Z,34.33
2018-09-09T11:55:05.275Z,33.39
2018-09-09T11:57:34.256Z,32.34
2018-09-09T12:00:03.307Z,33.23
2018-09-09T12:02:32.329Z,34.23
2018-09-09T12:05:01.333Z,35.77
2018-09-09T12:07:30.489Z,36.93
2018-09-09T12:09:59.522Z,37.50
2018-09-09T12:12:28.853Z,38.11
2018-09-09T12:14:58.884Z,38.13
2018-09-09T12:17:27.877Z,37.59
2018-09-09T12:19:56.827Z,37.76
2018-09-09T12:22:25.850Z,38.22
2018-09-09T12:24:54.936Z,38.12
2018-09-09T12:27:23.995Z,38.30
2018-09-09T12:29:52.944Z,38.12
2018-09-09T12:32:21.976Z,37.99
2018-09-09T12:34:50.918Z,36.27
2018-09-09T12:37:19.884Z,35.45
2018-09-09T12:39:48.847Z,34.87
2018-09-09T12:42:17.868Z,34.19
2018-09-09T12:44:51.887Z,34.08
2018-09-09T12:47:26.179Z,33.60
2018-09-09T12:49:55.217Z,33.14
2018-09-09T12:52:24.177Z,32.85
2018-09-09T12:54:53.144Z,32.41
2018-09-09T12:57:22.148Z,32.25
2018-09-09T12:59:51.277Z,31.56
2018-09-09T13:02:20.480Z,31.47
2018-09-09T13:04:49.500Z,31.49
2018-09-09T13:07:19.950Z,31.60
2018-09-09T13:09:48.948Z,31.56
2018-09-09T13:12:17.924Z,31.46
2018-09-09T13:14:47.217Z,31.57
2018-09-09T13:17:16.263Z,31.46
2018-09-09T13:19:45.294Z,31.21
2018-09-09T13:22:14.348Z,31.19
2018-09-09T13:24:43.316Z,30.80
2018-09-09T13:27:12.320Z,30.66
2018-09-09T13:29:41.378Z,30.49
2018-09-09T13:32:10.316Z,30.25
2018-09-09T13:34:39.332Z,30.04
2018-09-09T13:37:08.384Z,29.76
2018-09-09T13:39:37.440Z,29.60
2018-09-09T13:42:06.529Z,29.53
2018-09-09T13:44:35.546Z,29.62
2018-09-09T13:47:04.508Z,29.76
2018-09-09T13:49:33.500Z,29.90
2018-09-09T13:52:02.469Z,29.53
2018-09-09T13:54:31.600Z,29.36
2018-09-09T13:57:00.612Z,29.15
2018-09-09T13:59:29.965Z,29.05
2018-09-09T14:01:59.046Z,29.01
2018-09-09T14:04:28.018Z,28.93
2018-09-09T14:06:57.130Z,28.91
2018-09-09T14:09:26.211Z,28.90
2018-09-09T14:11:55.238Z,28.93
2018-09-09T14:14:24.243Z,28.81
2018-09-09T14:16:53.241Z,28.67
2018-09-09T14:19:22.194Z,28.53
2018-09-09T14:21:51.174Z,28.32
2018-09-09T14:24:20.136Z,28.13
2018-09-09T14:26:49.080Z,28.07
2018-09-09T14:29:18.040Z,27.91
2018-09-09T14:31:47.061Z,27.85
2018-09-09T14:34:16.010Z,27.86
2018-09-09T14:36:45.008Z,27.94
2018-09-09T14:39:14.025Z,28.08
2018-09-09T14:41:43.146Z,28.10
2018-09-09T14:44:12.346Z,28.01
2018-09-09T14:46:41.380Z,27.91
2018-09-09T14:49:10.388Z,27.81
2018-09-09T14:51:39.500Z,27.67
2018-09-09T14:54:08.486Z,27.61
2018-09-09T14:56:37.533Z,27.49
2018-09-09T14:59:08.528Z,27.40
2018-09-09T15:01:37.540Z,27.41
2018-09-09T15:04:06.525Z,27.38
2018-09-09T15:06:35.471Z,27.41
2018-09-09T15:09:05.624Z,27.46
2018-09-09T15:11:34.620Z,27.39
2018-09-09T15:14:03.601Z,27.40
2018-09-09T15:16:32.621Z,27.50
2018-09-09T15:19:01.697Z,27.58
2018-09-09T15:21:30.656Z,27.58
2018-09-09T15:23:59.703Z,27.48
2018-09-09T15:26:28.925Z,27.28
2018-09-09T15:28:57.977Z,27.05
2018-09-09T15:31:26.896Z,26.97
2018-09-09T15:33:55.948Z,26.85
2018-09-09T15:36:25.028Z,26.77
2018-09-09T15:38:54.014Z,26.64
2018-09-09T15:41:24.164Z,26.59
2018-09-09T15:43:53.137Z,26.51
2018-09-09T15:46:22.176Z,26.38
2018-09-09T15:48:51.161Z,26.31
2018-09-09T15:51:20.092Z,26.02
2018-09-09T15:53:49.042Z,26.18
2018-09-09T15:56:18.076Z,26.08
2018-09-09T15:58:47.080Z,26.05
2018-09-09T16:01:16.072Z,25.96
2018-09-09T16:03:45.096Z,25.84
2018-09-09T16:06:14.164Z,25.72
2018-09-09T16:08:43.120Z,25.66
2018-09-09T16:11:12.182Z,25.55
2018-09-09T16:13:41.173Z,25.46
2018-09-09T16:16:10.137Z,25.33
2018-09-09T16:18:39.234Z,25.34
2018-09-09T16:21:08.328Z,25.24
2018-09-09T16:23:37.390Z,25.15
2018-09-09T16:26:06.464Z,25.13
2018-09-09T16:28:35.541Z,25.16
2018-09-09T16:31:04.580Z,25.16
2018-09-09T16:33:33.586Z,25.18
2018-09-09T16:36:02.593Z,25.21
2018-09-09T16:38:31.596Z,25.17
2018-09-09T16:41:00.589Z,25.10
2018-09-09T16:43:29.600Z,25.03
2018-09-09T16:45:58.556Z,24.99
2018-09-09T16:48:27.562Z,24.93
2018-09-09T16:50:56.569Z,24.83
2018-09-09T16:53:25.572Z,24.79
2018-09-09T16:55:54.689Z,24.70
2018-09-09T16:58:23.701Z,24.59
2018-09-09T17:00:52.872Z,24.50
2018-09-09T17:03:26.156Z,24.48
2018-09-09T17:05:55.205Z,24.46
2018-09-09T17:08:25.681Z,24.39
2018-09-09T17:10:54.869Z,24.37
2018-09-09T17:13:23.804Z,24.33
2018-09-09T17:15:53.005Z,24.29
2018-09-09T17:18:21.969Z,24.25
2018-09-09T17:20:51.053Z,24.29
2018-09-09T17:23:20.489Z,24.38
2018-09-09T17:25:49.738Z,24.45
2018-09-09T17:28:19.046Z,24.50
2018-09-09T17:30:48.335Z,24.54
2018-09-09T17:33:17.645Z,24.54
2018-09-09T17:35:46.914Z,24.60
2018-09-09T17:38:16.225Z,24.62
2018-09-09T17:40:45.491Z,24.64
2018-09-09T17:43:14.743Z,24.63
2018-09-09T17:45:44.023Z,24.67
2018-09-09T17:48:13.303Z,24.70
2018-09-09T17:50:42.615Z,24.67
2018-09-09T17:53:11.895Z,24.62
2018-09-09T17:55:41.202Z,24.60
2018-09-09T17:58:10.483Z,24.62
2018-09-09T18:00:39.777Z,24.60
2018-09-09T18:03:09.064Z,24.50
2018-09-09T18:05:38.470Z,24.47
2018-09-09T18:08:07.855Z,24.29
2018-09-09T18:10:37.183Z,24.18
2018-09-09T18:13:06.521Z,24.00
2018-09-09T18:15:35.871Z,23.85
2018-09-09T18:18:05.187Z,23.90
2018-09-09T18:20:34.475Z,23.87
2018-09-09T18:23:03.824Z,23.84
2018-09-09T18:25:33.222Z,23.96
2018-09-09T18:28:02.564Z,24.04
2018-09-09T18:30:31.858Z,24.16
2018-09-09T18:33:01.142Z,24.23
2018-09-09T18:35:31.241Z,24.31
2018-09-09T18:38:00.735Z,24.44
2018-09-09T18:40:30.022Z,24.43
2018-09-09T18:42:59.320Z,24.44
2018-09-09T18:45:29.613Z,24.42
2018-09-09T18:47:58.921Z,24.41
2018-09-09T18:50:28.202Z,24.40
2018-09-09T18:52:59.512Z,24.35
2018-09-09T18:55:31.542Z,24.25
2018-09-09T18:58:01.098Z,24.27
2018-09-09T19:00:30.972Z,24.22
2018-09-09T19:03:00.277Z,24.17
2018-09-09T19:05:29.585Z,24.08
2018-09-09T19:07:58.913Z,23.67
2018-09-09T19:10:28.237Z,23.01
2018-09-09T19:12:58.615Z,22.59
2018-09-09T19:15:28.046Z,22.39
2018-09-09T19:17:57.366Z,22.12
2018-09-09T19:20:27.568Z,21.92
2018-09-09T19:25:24.992Z,21.67
2018-09-09T19:27:54.289Z,21.59
2018-09-09T19:30:23.575Z,21.61
2018-09-09T19:32:52.883Z,21.72
2018-09-09T19:35:22.206Z,21.70
2018-09-09T19:37:51.625Z,21.76
2018-09-09T19:40:20.913Z,21.81
2018-09-09T19:42:50.183Z,21.95
2018-09-09T19:45:19.483Z,21.91
2018-09-09T19:47:48.776Z,21.84
2018-09-09T19:50:18.060Z,21.74
2018-09-09T19:52:47.359Z,21.61
2018-09-09T19:55:16.807Z,21.57
2018-09-09T19:57:46.112Z,21.54
2018-09-09T20:00:15.397Z,21.52
2018-09-09T20:02:44.683Z,21.49
2018-09-09T20:05:13.973Z,21.46
2018-09-09T20:07:43.247Z,21.42
2018-09-09T20:10:12.487Z,21.35
2018-09-09T20:12:41.892Z,21.33
2018-09-09T20:15:11.232Z,21.33
2018-09-09T20:17:40.507Z,21.35
2018-09-09T20:20:09.797Z,21.37
2018-09-09T20:22:39.054Z,21.37
2018-09-09T20:25:08.144Z,21.36
2018-09-09T20:27:37.084Z,21.34
2018-09-09T20:30:06.075Z,21.29
2018-09-09T20:32:35.093Z,21.29
2018-09-09T20:35:04.098Z,21.27
2018-09-09T20:37:33.024Z,21.24
2018-09-09T20:40:01.987Z,21.19
2018-09-09T20:42:30.954Z,21.15
2018-09-09T20:44:59.878Z,21.11
2018-09-09T20:47:28.832Z,21.10
2018-09-09T20:49:57.757Z,21.10
2018-09-09T20:52:26.768Z,21.13
2018-09-09T20:54:55.687Z,21.18
2018-09-09T20:57:24.695Z,21.22
2018-09-09T20:59:53.615Z,21.26
2018-09-09T21:02:22.551Z,21.32
2018-09-09T21:04:51.512Z,21.34
2018-09-09T21:07:20.444Z,21.29
2018-09-09T21:09:49.399Z,21.26
2018-09-09T21:12:18.339Z,21.30
2018-09-09T21:14:47.272Z,21.31
2018-09-09T21:17:16.205Z,21.23
2018-09-09T21:19:45.290Z,21.30
2018-09-09T21:22:14.226Z,21.30
2018-09-09T21:24:43.171Z,21.30
2018-09-09T21:27:12.138Z,21.23
2018-09-09T21:29:41.076Z,21.20
2018-09-09T21:32:10.016Z,21.13
2018-09-09T21:34:38.969Z,21.03
2018-09-09T21:37:07.964Z,20.92
2018-09-09T21:39:36.876Z,20.86
2018-09-09T21:42:05.850Z,20.88
2018-09-09T21:44:34.781Z,20.85
2018-09-09T21:47:03.690Z,20.85
2018-09-09T21:49:32.674Z,20.73
2018-09-09T21:52:01.599Z,20.74
2018-09-09T21:54:30.795Z,20.77
2018-09-09T21:56:59.723Z,20.73
2018-09-09T21:59:28.680Z,20.72
2018-09-09T22:02:03.523Z,20.73
2018-09-09T22:04:32.594Z,20.69
2018-09-09T22:07:01.722Z,20.70
2018-09-09T22:09:30.707Z,20.63
2018-09-09T22:11:59.671Z,20.63
2018-09-09T22:14:28.610Z,20.57
2018-09-09T22:16:57.570Z,20.50
2018-09-09T22:19:26.479Z,20.44
2018-09-09T22:21:55.456Z,20.31
2018-09-09T22:24:24.383Z,20.27
2018-09-09T22:26:53.407Z,20.16
2018-09-09T22:29:22.335Z,20.13
2018-09-09T22:31:51.321Z,20.08
2018-09-09T22:34:20.318Z,20.01
2018-09-09T22:36:49.266Z,20.00
2018-09-09T22:39:18.215Z,19.93
2018-09-09T22:41:47.144Z,19.88
2018-09-09T22:44:16.155Z,19.85
2018-09-09T22:46:45.076Z,19.77
2018-09-09T22:49:14.192Z,19.72
2018-09-09T22:51:43.139Z,19.64
2018-09-09T22:54:12.159Z,19.54
2018-09-09T22:56:41.108Z,19.49
2018-09-09T22:59:10.062Z,19.45
2018-09-09T23:01:39.018Z,19.32
2018-09-09T23:04:07.962Z,19.27
2018-09-09T23:06:36.904Z,19.22
2018-09-09T23:09:08.527Z,19.18
2018-09-09T23:11:37.523Z,19.08
2018-09-09T23:14:06.447Z,19.10
2018-09-09T23:16:35.404Z,19.03
2018-09-09T23:19:04.311Z,18.92
2018-09-09T23:21:33.232Z,18.82
2018-09-09T23:24:02.174Z,18.79
2018-09-09T23:26:31.098Z,18.80
2018-09-09T23:29:00.049Z,18.82
2018-09-09T23:31:28.985Z,18.82
2018-09-09T23:33:57.920Z,18.81
2018-09-09T23:36:26.852Z,18.81
2018-09-09T23:38:55.835Z,18.82
2018-09-09T23:41:24.743Z,18.83
2018-09-09T23:43:53.659Z,18.86
2018-09-09T23:46:22.616Z,18.88
2018-09-09T23:48:51.570Z,18.91
2018-09-09T23:51:20.504Z,18.91
2018-09-09T23:53:49.423Z,18.92
2018-09-09T23:56:18.451Z,18.93
2018-09-09T23:58:47.367Z,18.94
